createdAt,value
2023-03-25T00:01:20.337Z,15.45
2023-03-25T00:06:28.117Z,15.37
2023-03-25T00:11:31.699Z,15.32
2023-03-25T00:16:34.944Z,15.35
2023-03-25T00:21:40.058Z,15.32
2023-03-25T00:26:48.869Z,15.32
2023-03-25T00:31:52.803Z,15.34
2023-03-25T00:36:56.790Z,15.31
2023-03-25T00:42:02.466Z,15.18
2023-03-25T00:47:05.865Z,15.05
2023-03-25T00:52:09.655Z,15.06
2023-03-25T00:57:13.580Z,15.09
2023-03-25T01:02:19.169Z,15.17
2023-03-25T01:07:23.362Z,15.26
2023-03-25T01:12:27.415Z,15.27
2023-03-25T01:17:32.363Z,15.27
2023-03-25T01:22:36.199Z,15.28
2023-03-25T01:27:39.836Z,15.25
2023-03-25T01:32:43.297Z,15.25
2023-03-25T01:37:47.129Z,15.25
2023-03-25T01:42:50.899Z,15.22
2023-03-25T01:48:26.298Z,15.14
2023-03-25T01:53:32.460Z,15.14
2023-03-25T01:58:36.552Z,15.09
2023-03-25T02:03:46.350Z,15.08
2023-03-25T02:08:53.005Z,15.07
2023-03-25T02:14:03.007Z,15.01
2023-03-25T02:19:07.111Z,14.98
2023-03-25T02:24:20.219Z,14.99
2023-03-25T02:29:39.649Z,14.96
2023-03-25T02:35:21.693Z,14.90
2023-03-25T02:40:55.925Z,14.93
2023-03-25T02:46:04.179Z,14.95
2023-03-25T02:51:17.991Z,14.91
2023-03-25T02:56:44.910Z,14.87
2023-03-25T03:01:50.825Z,14.89
2023-03-25T03:06:58.209Z,14.88
2023-03-25T03:12:43.045Z,14.90
2023-03-25T03:17:58.442Z,14.95
2023-03-25T03:23:21.322Z,14.93
2023-03-25T03:28:34.832Z,14.96
2023-03-25T03:33:50.958Z,14.98
2023-03-25T03:39:02.045Z,14.95
2023-03-25T03:44:11.255Z,14.96
2023-03-25T03:49:21.330Z,14.93
2023-03-25T03:54:33.490Z,14.87
2023-03-25T03:59:47.958Z,14.81
2023-03-25T04:04:54.083Z,14.81
2023-03-25T04:10:15.040Z,14.76
2023-03-25T04:15:19.305Z,14.69
2023-03-25T04:20:30.041Z,14.63
2023-03-25T04:31:56.452Z,14.59
2023-03-25T04:37:00.117Z,14.53
2023-03-25T04:42:03.888Z,14.44
2023-03-25T04:47:15.181Z,14.32
2023-03-25T04:52:18.950Z,14.16
2023-03-25T04:57:22.472Z,14.07
2023-03-25T05:02:25.794Z,13.96
2023-03-25T05:07:30.228Z,13.84
2023-03-25T05:12:34.083Z,13.75
2023-03-25T05:18:14.357Z,13.77
2023-03-25T05:23:18.290Z,13.77
2023-03-25T05:28:21.713Z,13.71
2023-03-25T05:33:25.254Z,13.60
2023-03-25T05:38:28.730Z,13.60
2023-03-25T05:43:35.934Z,13.61
2023-03-25T05:48:41.702Z,13.62
2023-03-25T05:53:45.807Z,13.64
2023-03-25T05:58:51.189Z,13.61
2023-03-25T06:03:54.614Z,13.59
2023-03-25T06:08:59.004Z,13.57
2023-03-25T06:14:02.954Z,13.55
2023-03-25T06:19:09.702Z,13.56
2023-03-25T06:24:14.155Z,13.58
2023-03-25T06:29:17.589Z,13.49
2023-03-25T06:34:22.619Z,13.49
2023-03-25T06:39:33.943Z,13.57
2023-03-25T06:44:39.916Z,13.57
2023-03-25T06:50:11.539Z,13.58
2023-03-25T06:55:16.348Z,13.63
2023-03-25T07:00:23.776Z,13.65
2023-03-25T07:05:27.908Z,13.65
2023-03-25T07:10:32.662Z,13.68
2023-03-25T07:15:36.406Z,13.74
2023-03-25T07:20:39.841Z,13.76
2023-03-25T07:25:50.043Z,13.78
2023-03-25T07:30:53.523Z,13.81
2023-03-25T07:35:57.073Z,13.75
2023-03-25T07:41:04.644Z,13.81
2023-03-25T07:46:08.004Z,13.89
2023-03-25T07:51:15.002Z,13.94
2023-03-25T07:56:18.269Z,14.02
2023-03-25T08:01:22.090Z,14.06
2023-03-25T08:06:25.660Z,14.12
2023-03-25T08:11:28.994Z,14.14
2023-03-25T08:16:32.404Z,14.24
2023-03-25T08:21:36.471Z,14.23
2023-03-25T08:26:39.867Z,14.23
2023-03-25T08:31:47.145Z,14.27
2023-03-25T08:36:50.893Z,14.33
2023-03-25T08:41:54.907Z,14.44
2023-03-25T08:46:58.319Z,14.51
2023-03-25T08:52:02.196Z,14.57
2023-03-25T08:57:06.323Z,14.75
2023-03-25T09:02:12.366Z,14.89
2023-03-25T09:07:16.173Z,15.02
2023-03-25T09:12:19.762Z,15.19
2023-03-25T09:17:23.283Z,15.29
2023-03-25T09:22:26.858Z,15.50
2023-03-25T09:27:30.308Z,15.65
2023-03-25T09:32:34.613Z,15.82
2023-03-25T09:37:38.094Z,16.03
2023-03-25T09:43:06.558Z,16.12
2023-03-25T09:48:33.612Z,16.10
2023-03-25T09:53:40.868Z,16.21
2023-03-25T09:58:51.068Z,16.29
2023-03-25T10:04:17.532Z,16.45
2023-03-25T10:09:39.042Z,16.63
2023-03-25T10:14:56.881Z,16.91
2023-03-25T10:20:36.938Z,17.01
2023-03-25T10:25:46.206Z,17.23
2023-03-25T10:30:53.816Z,17.47
2023-03-25T10:36:00.372Z,17.62
2023-03-25T10:41:27.849Z,17.58
2023-03-25T10:46:47.868Z,17.39
2023-03-25T10:52:05.017Z,17.16
2023-03-25T10:57:23.351Z,17.11
2023-03-25T11:02:39.821Z,17.19
2023-03-25T11:13:44.657Z,17.75
2023-03-25T11:18:49.686Z,18.03
2023-03-25T11:23:54.606Z,18.03
2023-03-25T11:29:44.765Z,18.08
2023-03-25T11:35:21.838Z,18.27
2023-03-25T11:43:04.701Z,18.54
2023-03-25T11:48:39.394Z,18.56
2023-03-25T11:54:09.314Z,18.38
2023-03-25T11:59:37.064Z,18.00
2023-03-25T12:05:02.300Z,17.68
2023-03-25T12:10:10.299Z,16.91
2023-03-25T12:15:29.758Z,16.44
2023-03-25T12:21:12.001Z,15.99
2023-03-25T12:27:16.410Z,15.52
2023-03-25T12:33:43.112Z,15.22
2023-03-25T12:45:04.453Z,14.75
2023-03-25T12:50:14.267Z,14.64
2023-03-25T12:55:35.983Z,14.67
2023-03-25T13:01:23.143Z,14.95
2023-03-25T13:06:35.132Z,15.47
2023-03-25T13:11:59.266Z,15.59
2023-03-25T13:17:11.021Z,15.78
2023-03-25T13:22:20.121Z,16.33
2023-03-25T13:27:23.869Z,16.66
2023-03-25T13:32:34.756Z,16.79
2023-03-25T13:37:53.634Z,16.53
2023-03-25T13:43:07.045Z,16.11
2023-03-25T13:48:37.467Z,16.08
2023-03-25T13:54:25.740Z,16.51
2023-03-25T13:59:52.222Z,16.67
2023-03-25T14:05:35.289Z,16.72
2023-03-25T14:11:33.827Z,16.59
2023-03-25T14:16:43.258Z,16.51
2023-03-25T14:21:52.397Z,16.40
2023-03-25T14:27:06.077Z,16.36
2023-03-25T14:32:10.011Z,16.31
2023-03-25T14:37:21.894Z,16.18
2023-03-25T14:42:29.384Z,16.06
2023-03-25T14:47:35.767Z,16.05
2023-03-25T14:52:45.975Z,16.05
2023-03-25T14:57:52.702Z,16.09
2023-03-25T15:03:10.860Z,16.11
2023-03-25T15:08:18.019Z,15.97
2023-03-25T15:13:27.627Z,15.80
2023-03-25T15:18:37.406Z,15.77
2023-03-25T15:24:02.412Z,15.72
2023-03-25T15:29:32.687Z,15.69
2023-03-25T15:35:01.045Z,15.77
2023-03-25T15:43:15.397Z,15.79
2023-03-25T15:48:46.942Z,15.64
2023-03-25T15:54:04.185Z,15.53
2023-03-25T15:59:33.063Z,15.36
2023-03-25T16:04:42.460Z,15.20
2023-03-25T16:09:50.072Z,14.98
2023-03-25T16:14:53.725Z,14.81
2023-03-25T16:19:58.543Z,14.74
2023-03-25T16:25:27.313Z,14.68
2023-03-25T16:30:42.142Z,14.56
2023-03-25T16:36:10.433Z,14.50
2023-03-25T16:42:49.472Z,14.47
2023-03-25T16:47:55.276Z,14.42
2023-03-25T16:53:03.282Z,14.44
2023-03-25T16:58:16.710Z,14.41
2023-03-25T17:03:41.031Z,14.35
2023-03-25T17:08:48.838Z,14.27
2023-03-25T17:13:58.446Z,14.16
2023-03-25T17:19:04.710Z,14.08
2023-03-25T17:24:24.488Z,14.10
2023-03-25T17:29:30.598Z,14.04
2023-03-25T17:34:43.048Z,13.90
2023-03-25T17:43:09.088Z,13.88
2023-03-25T17:48:17.706Z,13.90
2023-03-25T17:53:22.121Z,13.90
2023-03-25T17:58:26.311Z,13.78
2023-03-25T19:05:32.085Z,13.31
2023-03-25T19:10:46.333Z,13.29
2023-03-25T19:15:50.362Z,13.25
2023-03-25T19:20:54.691Z,13.20
2023-03-25T19:26:01.323Z,13.11
2023-03-25T19:31:06.909Z,13.04
2023-03-25T19:36:19.186Z,12.99
2023-03-25T19:42:50.107Z,12.99
2023-03-25T19:47:54.511Z,12.87
2023-03-25T19:53:06.315Z,12.87
2023-03-25T19:58:11.684Z,12.89
2023-03-25T20:03:22.603Z,12.82
2023-03-25T20:08:27.242Z,12.76
2023-03-25T20:13:30.885Z,12.64
2023-03-25T20:18:34.146Z,12.66
2023-03-25T20:23:37.840Z,12.74
2023-03-25T20:28:41.202Z,12.82
2023-03-25T20:33:45.221Z,12.93
2023-03-25T20:38:57.178Z,12.95
2023-03-25T20:44:01.772Z,12.91
2023-03-25T20:49:09.091Z,12.89
2023-03-25T20:54:17.376Z,12.83
2023-03-25T20:59:21.070Z,12.84
2023-03-25T21:04:25.080Z,12.79
2023-03-25T21:09:28.670Z,12.80
2023-03-25T21:14:32.181Z,12.93
2023-03-25T21:19:35.579Z,13.01
2023-03-25T21:24:38.900Z,13.09
2023-03-25T21:29:42.189Z,13.12
2023-03-25T21:34:45.595Z,13.09
2023-03-25T21:39:50.588Z,13.05
2023-03-25T21:44:53.759Z,12.96
2023-03-25T21:49:57.216Z,12.84
2023-03-25T21:55:01.060Z,12.72
2023-03-25T22:00:06.112Z,12.68
2023-03-25T22:05:17.100Z,12.63
2023-03-25T22:10:20.721Z,12.55
2023-03-25T22:15:24.110Z,12.50
2023-03-25T22:20:27.572Z,12.42
2023-03-25T22:25:31.274Z,12.31
2023-03-25T22:30:35.527Z,12.19
2023-03-25T22:35:38.936Z,12.10
2023-03-25T22:40:45.264Z,11.99
2023-03-25T22:45:48.842Z,11.82
2023-03-25T22:50:52.202Z,11.62
2023-03-25T22:55:56.951Z,11.47
2023-03-25T23:01:03.149Z,11.40
2023-03-25T23:06:08.193Z,11.36
2023-03-25T23:11:24.227Z,11.31
2023-03-25T23:16:31.037Z,11.23
2023-03-25T23:21:34.774Z,11.24
2023-03-25T23:26:40.525Z,11.26
2023-03-25T23:31:44.689Z,11.30
2023-03-25T23:36:48.227Z,11.33
2023-03-25T23:41:52.006Z,11.37
2023-03-25T23:46:56.138Z,11.35
2023-03-25T23:52:00.499Z,11.37
2023-03-25T23:57:04.141Z,11.37
